createdAt,value
2017-11-26T00:00:20.064Z,70.50
2017-11-26T00:03:05.424Z,69.90
2017-11-26T00:05:40.496Z,70.10
2017-11-26T00:11:15.925Z,68.90
2017-11-26T00:13:56.233Z,69.60
2017-11-26T00:16:30.715Z,70.20
2017-11-26T00:19:05.084Z,70.50
2017-11-26T00:21:38.655Z,70.10
2017-11-26T00:24:11.920Z,69.50
2017-11-26T00:26:46.496Z,69.50
2017-11-26T00:29:19.642Z,69.40
2017-11-26T00:31:55.881Z,70.30
2017-11-26T00:34:29.048Z,70.50
2017-11-26T00:37:01.789Z,70.50
2017-11-26T00:39:35.823Z,70.50
2017-11-26T00:42:09.406Z,70.30
2017-11-26T00:44:42.730Z,70.50
2017-11-26T00:47:16.573Z,70.50
2017-11-26T00:49:51.513Z,70.30
2017-11-26T00:52:26.005Z,70.10
2017-11-26T00:54:59.105Z,70.00
2017-11-26T00:57:34.798Z,70.00
2017-11-26T01:00:12.345Z,69.80
2017-11-26T01:02:51.028Z,69.20
2017-11-26T01:05:26.726Z,68.60
2017-11-26T01:08:02.256Z,68.60
2017-11-26T01:10:34.683Z,68.70
2017-11-26T01:13:10.232Z,67.60
2017-11-26T01:15:45.419Z,68.00
2017-11-26T01:18:22.227Z,68.80
2017-11-26T01:20:58.574Z,68.80
2017-11-26T01:23:37.047Z,67.90
2017-11-26T01:26:12.151Z,68.90
2017-11-26T01:28:45.619Z,69.20
2017-11-26T01:31:19.702Z,69.10
2017-11-26T01:33:52.624Z,69.20
2017-11-26T01:36:27.723Z,69.60
2017-11-26T01:38:59.368Z,69.20
2017-11-26T01:41:35.966Z,69.40
2017-11-26T01:44:10.339Z,69.60
2017-11-26T01:46:47.701Z,69.90
2017-11-26T01:49:23.315Z,69.80
2017-11-26T01:52:03.674Z,69.60
2017-11-26T01:54:53.184Z,69.70
2017-11-26T01:57:29.338Z,69.70
2017-11-26T02:00:02.943Z,70.00
2017-11-26T02:02:37.180Z,69.90
2017-11-26T02:05:19.893Z,70.00
2017-11-26T02:07:56.891Z,70.20
2017-11-26T02:10:29.909Z,68.90
2017-11-26T02:13:05.366Z,69.50
2017-11-26T02:15:41.699Z,70.00
2017-11-26T02:18:20.048Z,69.90
2017-11-26T02:20:54.224Z,70.00
2017-11-26T02:23:29.724Z,69.80
2017-11-26T02:26:09.099Z,69.60
2017-11-26T02:28:49.920Z,69.70
2017-11-26T02:31:32.893Z,69.50
2017-11-26T02:34:15.853Z,69.30
2017-11-26T02:36:52.674Z,69.30
2017-11-26T02:39:30.317Z,69.40
2017-11-26T02:42:05.080Z,69.50
2017-11-26T02:44:43.162Z,69.80
2017-11-26T02:47:20.918Z,69.80
2017-11-26T02:49:54.046Z,69.00
2017-11-26T02:52:33.150Z,69.00
2017-11-26T02:55:08.368Z,68.00
2017-11-26T02:57:42.752Z,67.90
2017-11-26T03:00:19.073Z,67.90
2017-11-26T03:02:54.656Z,67.50
2017-11-26T03:05:30.368Z,67.40
2017-11-26T03:08:05.482Z,67.40
2017-11-26T03:10:40.870Z,68.20
2017-11-26T03:13:15.660Z,68.10
2017-11-26T03:15:48.179Z,68.40
2017-11-26T03:18:22.639Z,68.70
2017-11-26T03:20:58.385Z,68.20
2017-11-26T03:23:31.332Z,68.30
2017-11-26T03:26:06.103Z,67.90
2017-11-26T03:28:37.874Z,67.40
2017-11-26T03:31:09.937Z,67.60
2017-11-26T03:33:42.736Z,68.00
2017-11-26T03:36:15.933Z,68.10
2017-11-26T03:38:50.976Z,67.60
2017-11-26T03:41:23.296Z,67.60
2017-11-26T03:43:56.109Z,67.70
2017-11-26T03:46:29.798Z,67.70
2017-11-26T03:49:03.248Z,67.70
2017-11-26T03:51:37.739Z,67.50
2017-11-26T03:54:09.191Z,67.50
2017-11-26T03:56:43.102Z,68.30
2017-11-26T03:59:17.262Z,68.30
2017-11-26T04:01:50.385Z,68.40
2017-11-26T04:04:24.253Z,68.00
2017-11-26T04:06:57.391Z,67.70
2017-11-26T04:09:30.877Z,67.00
2017-11-26T04:12:06.057Z,67.00
2017-11-26T04:14:38.799Z,67.00
2017-11-26T04:17:13.746Z,66.90
2017-11-26T04:19:46.306Z,68.40
2017-11-26T04:22:19.116Z,67.80
2017-11-26T04:24:53.089Z,68.50
2017-11-26T04:27:27.459Z,68.30
2017-11-26T04:30:00.441Z,68.60
2017-11-26T04:32:37.036Z,68.00
2017-11-26T04:35:11.576Z,68.20
2017-11-26T04:37:48.025Z,68.10
2017-11-26T04:40:21.526Z,67.80
2017-11-26T04:42:55.285Z,67.30
2017-11-26T04:45:27.963Z,67.50
2017-11-26T04:48:04.413Z,68.10
2017-11-26T04:50:38.595Z,68.10
2017-11-26T04:53:18.540Z,67.50
2017-11-26T04:55:52.552Z,67.50
2017-11-26T04:58:25.230Z,67.70
2017-11-26T05:01:03.374Z,67.50
2017-11-26T05:03:41.092Z,67.50
2017-11-26T05:06:26.094Z,67.30
2017-11-26T05:09:00.567Z,67.40
2017-11-26T05:11:35.022Z,67.60
2017-11-26T05:14:12.715Z,67.80
2017-11-26T05:16:48.075Z,67.70
2017-11-26T05:19:41.069Z,67.70
2017-11-26T05:22:16.640Z,67.60
2017-11-26T05:24:53.507Z,67.20
2017-11-26T05:27:29.946Z,67.00
2017-11-26T05:30:06.603Z,65.80
2017-11-26T05:32:42.904Z,66.40
2017-11-26T05:35:16.423Z,66.60
2017-11-26T05:37:54.672Z,66.60
2017-11-26T05:40:26.848Z,66.60
2017-11-26T05:43:04.666Z,65.20
2017-11-26T05:45:38.226Z,66.00
2017-11-26T05:48:12.083Z,66.30
2017-11-26T05:50:46.008Z,66.30
2017-11-26T05:53:17.885Z,66.40
2017-11-26T05:55:50.191Z,66.30
2017-11-26T05:58:29.566Z,66.70
2017-11-26T06:01:06.871Z,66.60
2017-11-26T06:03:45.153Z,66.60
2017-11-26T06:06:16.302Z,66.50
2017-11-26T06:08:49.960Z,67.20
2017-11-26T06:11:24.798Z,66.00
2017-11-26T06:14:01.352Z,65.60
2017-11-26T06:16:50.194Z,66.00
2017-11-26T06:19:26.161Z,65.80
2017-11-26T06:22:03.300Z,65.50
2017-11-26T06:24:39.239Z,65.70
2017-11-26T06:27:15.189Z,65.50
2017-11-26T06:32:37.331Z,66.10
2017-11-26T06:35:26.860Z,66.30
2017-11-26T06:38:01.361Z,66.40
2017-11-26T06:40:36.774Z,66.50
2017-11-26T06:43:12.362Z,67.00
2017-11-26T06:45:47.870Z,67.00
2017-11-26T06:48:23.684Z,67.10
2017-11-26T06:53:39.421Z,66.70
2017-11-26T06:56:17.975Z,66.90
2017-11-26T06:58:52.351Z,66.40
2017-11-26T07:01:30.106Z,66.50
2017-11-26T07:04:05.662Z,66.20
2017-11-26T07:06:38.057Z,66.30
2017-11-26T07:09:14.271Z,65.80
2017-11-26T07:11:52.618Z,65.80
2017-11-26T07:14:28.108Z,65.80
2017-11-26T07:17:05.565Z,65.90
2017-11-26T07:19:41.626Z,66.20
2017-11-26T07:22:16.021Z,66.60
2017-11-26T07:24:50.652Z,66.60
2017-11-26T07:27:39.492Z,66.60
2017-11-26T07:30:16.889Z,66.70
2017-11-26T07:32:51.316Z,66.70
2017-11-26T07:35:29.128Z,66.30
2017-11-26T07:41:10.728Z,65.90
2017-11-26T07:43:47.283Z,65.90
2017-11-26T07:49:05.350Z,65.90
2017-11-26T07:51:41.246Z,66.10
2017-11-26T07:54:17.391Z,65.80
2017-11-26T07:56:52.894Z,65.50
2017-11-26T07:59:40.310Z,65.50
2017-11-26T08:02:19.701Z,65.30
2017-11-26T08:04:57.290Z,65.20
2017-11-26T08:07:31.098Z,65.20
2017-11-26T08:10:09.122Z,65.20
2017-11-26T08:12:43.666Z,64.90
2017-11-26T08:15:23.340Z,64.60
2017-11-26T08:17:58.276Z,65.00
2017-11-26T08:23:29.391Z,64.80
2017-11-26T08:26:11.808Z,64.90
2017-11-26T08:28:45.773Z,64.80
2017-11-26T08:31:23.608Z,64.70
2017-11-26T08:34:12.209Z,64.30
2017-11-26T08:36:51.425Z,64.10
2017-11-26T08:39:26.651Z,64.20
2017-11-26T08:42:02.891Z,64.30
2017-11-26T08:47:22.889Z,63.90
2017-11-26T08:49:57.993Z,64.10
2017-11-26T08:52:33.899Z,63.80
2017-11-26T08:55:07.000Z,64.20
2017-11-26T08:57:42.648Z,64.50
2017-11-26T09:00:20.632Z,64.10
2017-11-26T09:02:55.117Z,64.40
2017-11-26T09:05:33.369Z,63.90
2017-11-26T09:08:08.759Z,63.90
2017-11-26T09:10:46.098Z,63.80
2017-11-26T09:13:27.412Z,63.90
2017-11-26T09:18:51.761Z,63.90
2017-11-26T09:21:40.316Z,63.90
2017-11-26T09:24:14.332Z,64.00
2017-11-26T09:26:49.990Z,64.10
2017-11-26T09:29:37.472Z,64.20
2017-11-26T09:32:14.177Z,64.10
2017-11-26T09:34:54.656Z,63.40
2017-11-26T09:37:40.834Z,63.40
2017-11-26T09:40:19.722Z,63.20
2017-11-26T09:45:36.506Z,63.20
2017-11-26T09:48:19.735Z,63.00
2017-11-26T09:51:00.536Z,62.90
2017-11-26T09:53:34.219Z,61.80
2017-11-26T09:56:07.706Z,61.40
2017-11-26T09:58:43.736Z,61.90
2017-11-26T10:01:17.371Z,63.00
2017-11-26T10:03:53.855Z,61.60
2017-11-26T10:06:28.068Z,61.60
2017-11-26T10:09:00.034Z,62.10
2017-11-26T10:11:34.944Z,62.00
2017-11-26T10:14:23.221Z,62.10
2017-11-26T10:16:56.718Z,62.00
2017-11-26T10:19:34.272Z,61.90
2017-11-26T10:22:13.242Z,61.70
2017-11-26T10:24:50.262Z,61.60
2017-11-26T10:27:25.933Z,61.40
2017-11-26T10:30:08.733Z,61.40
2017-11-26T10:32:51.714Z,61.60
2017-11-26T10:35:30.644Z,61.50
2017-11-26T10:38:09.608Z,61.30
2017-11-26T10:40:45.294Z,61.40
2017-11-26T10:43:20.577Z,60.80
2017-11-26T10:46:01.008Z,60.90
2017-11-26T10:48:44.202Z,59.90
2017-11-26T10:51:19.084Z,60.40
2017-11-26T10:53:58.227Z,60.80
2017-11-26T10:56:35.469Z,60.30
2017-11-26T10:59:19.217Z,60.00
2017-11-26T11:01:58.224Z,60.80
2017-11-26T11:05:44.883Z,59.70
2017-11-26T11:08:20.547Z,59.80
2017-11-26T11:10:58.832Z,59.50
2017-11-26T11:13:36.607Z,58.60
2017-11-26T11:16:11.928Z,59.20
2017-11-26T11:18:46.852Z,59.00
2017-11-26T11:21:26.661Z,59.40
2017-11-26T11:24:07.263Z,59.40
2017-11-26T11:26:45.365Z,59.50
2017-11-26T11:29:24.010Z,58.80
2017-11-26T11:32:02.709Z,58.80
2017-11-26T11:34:36.435Z,58.70
2017-11-26T11:37:15.023Z,58.70
2017-11-26T11:39:47.538Z,59.10
2017-11-26T11:42:27.198Z,58.80
2017-11-26T11:45:03.681Z,58.40
2017-11-26T11:47:42.452Z,58.80
2017-11-26T11:50:19.212Z,58.50
2017-11-26T11:52:58.613Z,58.60
2017-11-26T11:55:34.523Z,58.60
2017-11-26T11:58:11.568Z,58.60
2017-11-26T12:03:28.335Z,58.00
2017-11-26T12:06:06.243Z,57.90
2017-11-26T12:08:42.905Z,57.80
2017-11-26T12:11:28.853Z,58.20
2017-11-26T12:14:03.549Z,58.50
2017-11-26T12:16:40.594Z,59.00
2017-11-26T12:19:20.357Z,59.50
2017-11-26T12:21:54.960Z,59.80
2017-11-26T12:24:30.897Z,61.00
2017-11-26T12:27:10.719Z,61.00
2017-11-26T12:29:51.012Z,61.60
2017-11-26T12:32:32.717Z,61.70
2017-11-26T12:35:10.974Z,61.10
2017-11-26T12:37:55.364Z,61.00
2017-11-26T12:40:30.640Z,61.50
2017-11-26T12:43:07.915Z,60.80
2017-11-26T12:45:46.333Z,60.60
2017-11-26T12:48:21.912Z,60.60
2017-11-26T12:51:03.595Z,60.50
2017-11-26T12:53:46.900Z,60.30
2017-11-26T12:56:27.557Z,59.80
2017-11-26T12:59:06.535Z,59.70
2017-11-26T13:01:47.607Z,59.60
2017-11-26T13:04:37.315Z,60.90
2017-11-26T13:07:17.627Z,60.20
2017-11-26T13:09:57.698Z,60.80
2017-11-26T13:12:41.629Z,60.10
2017-11-26T13:15:21.103Z,60.60
2017-11-26T13:18:01.408Z,60.70
2017-11-26T13:20:45.645Z,60.70
2017-11-26T13:23:34.570Z,61.20
2017-11-26T13:26:14.451Z,60.70
2017-11-26T13:29:01.741Z,60.30
2017-11-26T13:31:44.094Z,60.40
2017-11-26T13:34:31.590Z,60.00
2017-11-26T13:37:24.822Z,60.10
2017-11-26T13:40:05.697Z,60.20
2017-11-26T13:42:48.103Z,60.20
2017-11-26T13:45:41.087Z,60.30
2017-11-26T13:48:33.579Z,60.20
2017-11-26T13:54:07.578Z,60.00
2017-11-26T13:56:42.919Z,60.10
2017-11-26T14:02:37.050Z,59.90
2017-11-26T14:05:23.762Z,60.80
2017-11-26T14:08:07.583Z,60.00
2017-11-26T14:10:55.246Z,59.70
2017-11-26T14:13:43.236Z,59.90
2017-11-26T14:16:27.524Z,59.80
2017-11-26T14:19:06.904Z,59.80
2017-11-26T14:21:51.642Z,59.60
2017-11-26T14:24:29.241Z,59.40
2017-11-26T14:27:14.701Z,59.50
2017-11-26T14:29:58.611Z,59.80
2017-11-26T14:32:51.004Z,60.50
2017-11-26T14:35:33.352Z,60.60
2017-11-26T14:38:10.939Z,61.30
2017-11-26T14:40:54.677Z,61.50
2017-11-26T14:43:41.423Z,61.50
2017-11-26T14:46:39.556Z,61.60
2017-11-26T14:49:27.872Z,61.10
2017-11-26T14:52:14.300Z,61.50
2017-11-26T14:55:09.517Z,61.70
2017-11-26T14:57:52.303Z,61.50
2017-11-26T15:06:17.471Z,61.60
2017-11-26T15:09:03.810Z,61.70
2017-11-26T15:11:47.857Z,61.90
2017-11-26T15:14:40.667Z,61.90
2017-11-26T15:17:30.751Z,62.00
2017-11-26T15:20:19.745Z,61.80
2017-11-26T15:23:16.758Z,62.20
2017-11-26T15:25:59.974Z,62.50
2017-11-26T15:28:40.291Z,63.20
2017-11-26T15:31:30.331Z,63.20
2017-11-26T15:34:19.804Z,63.10
2017-11-26T15:37:01.923Z,63.10
2017-11-26T15:39:56.855Z,62.70
2017-11-26T15:42:43.336Z,62.70
2017-11-26T15:45:26.576Z,63.30
2017-11-26T15:48:23.700Z,63.40
2017-11-26T15:51:01.083Z,63.50
2017-11-26T15:53:39.776Z,63.30
2017-11-26T15:56:29.972Z,63.30
2017-11-26T15:59:09.004Z,63.60
2017-11-26T16:01:52.552Z,64.10
2017-11-26T16:04:37.132Z,64.20
2017-11-26T16:07:29.401Z,64.50
2017-11-26T16:10:13.670Z,64.50
2017-11-26T16:12:58.486Z,64.80
2017-11-26T16:15:49.074Z,64.90
2017-11-26T16:18:33.675Z,65.20
2017-11-26T16:21:16.331Z,65.10
2017-11-26T16:26:42.200Z,65.60
2017-11-26T16:29:31.996Z,65.90
2017-11-26T16:32:12.925Z,66.10
2017-11-26T16:34:56.698Z,66.10
2017-11-26T16:37:44.298Z,66.20
2017-11-26T16:40:30.011Z,66.30
2017-11-26T16:43:13.232Z,66.40
2017-11-26T16:46:05.403Z,66.40
2017-11-26T16:48:46.077Z,66.60
2017-11-26T16:51:32.339Z,66.70
2017-11-26T16:54:18.177Z,66.70
2017-11-26T16:57:02.301Z,66.70
2017-11-26T16:59:43.960Z,66.60
2017-11-26T17:02:27.887Z,67.10
2017-11-26T17:05:10.577Z,66.90
2017-11-26T17:07:51.347Z,66.80
2017-11-26T17:10:28.553Z,66.90
2017-11-26T17:13:27.996Z,67.20
2017-11-26T17:16:15.328Z,67.20
2017-11-26T17:21:46.044Z,67.20
2017-11-26T17:24:29.361Z,66.80
2017-11-26T17:27:11.151Z,66.70
2017-11-26T17:29:54.352Z,66.00
2017-11-26T17:32:33.780Z,66.30
2017-11-26T17:35:17.255Z,66.20
2017-11-26T17:38:24.389Z,66.10
2017-11-26T17:41:07.189Z,65.90
2017-11-26T17:43:49.659Z,65.50
2017-11-26T17:46:33.544Z,65.50
2017-11-26T17:49:16.321Z,64.90
2017-11-26T17:52:14.488Z,64.80
2017-11-26T17:55:05.009Z,63.70
2017-11-26T17:57:39.946Z,64.70
2017-11-26T18:03:09.723Z,64.90
2017-11-26T18:05:49.127Z,65.20
2017-11-26T18:08:30.125Z,65.30
2017-11-26T18:11:10.282Z,65.40
2017-11-26T18:13:46.789Z,65.40
2017-11-26T18:16:28.906Z,65.50
2017-11-26T18:19:18.268Z,65.40
2017-11-26T18:22:02.893Z,65.40
2017-11-26T18:24:42.455Z,64.90
2017-11-26T18:27:27.950Z,65.10
2017-11-26T18:33:03.000Z,65.40
2017-11-26T18:35:50.956Z,65.40
2017-11-26T18:38:40.914Z,65.40
2017-11-26T18:41:31.654Z,65.80
2017-11-26T18:44:11.526Z,65.80
2017-11-26T18:47:01.373Z,66.10
2017-11-26T18:49:39.883Z,66.50
2017-11-26T18:52:22.022Z,66.50
2017-11-26T18:55:07.292Z,66.10
2017-11-26T18:57:42.117Z,67.00
2017-11-26T19:00:28.589Z,66.80
2017-11-26T19:03:17.322Z,66.70
2017-11-26T19:06:47.427Z,67.20
2017-11-26T19:09:27.680Z,67.30
2017-11-26T19:12:10.624Z,67.50
2017-11-26T19:14:54.421Z,67.40
2017-11-26T19:17:39.356Z,67.50
2017-11-26T19:20:19.241Z,67.60
2017-11-26T19:23:03.141Z,67.90
2017-11-26T19:25:47.036Z,67.80
2017-11-26T19:28:27.120Z,68.00
2017-11-26T19:31:05.146Z,67.90
2017-11-26T19:36:37.242Z,67.60
2017-11-26T19:39:19.417Z,67.70
2017-11-26T19:41:56.404Z,67.50
2017-11-26T19:44:34.321Z,67.50
2017-11-26T19:47:14.000Z,67.30
2017-11-26T19:49:58.146Z,67.10
2017-11-26T19:52:41.799Z,67.30
2017-11-26T19:55:31.390Z,67.40
2017-11-26T19:58:16.835Z,67.40
2017-11-26T20:01:07.937Z,67.10
2017-11-26T20:03:48.666Z,67.40
2017-11-26T20:06:42.150Z,67.30
2017-11-26T20:09:41.377Z,67.10
2017-11-26T20:12:47.928Z,67.00
2017-11-26T20:15:42.843Z,68.20
2017-11-26T20:18:34.980Z,66.70
2017-11-26T20:21:50.268Z,66.70
2017-11-26T20:24:51.747Z,65.90
2017-11-26T20:27:51.450Z,65.40
2017-11-26T20:30:36.578Z,66.40
2017-11-26T20:33:24.733Z,66.20
2017-11-26T20:36:10.725Z,65.80
2017-11-26T20:39:12.964Z,65.90
2017-11-26T20:44:48.872Z,66.10
2017-11-26T20:47:33.335Z,66.20
2017-11-26T20:50:36.048Z,66.60
2017-11-26T20:56:04.019Z,66.40
2017-11-26T20:59:11.768Z,66.60
2017-11-26T21:01:51.696Z,66.70
2017-11-26T21:04:34.175Z,66.80
2017-11-26T21:07:27.325Z,66.80
2017-11-26T21:10:09.121Z,66.80
2017-11-26T21:12:50.504Z,66.20
2017-11-26T21:15:29.863Z,66.20
2017-11-26T21:18:21.749Z,66.40
2017-11-26T21:21:03.072Z,66.60
2017-11-26T21:23:47.670Z,66.60
2017-11-26T21:26:32.190Z,66.70
2017-11-26T21:29:09.199Z,67.20
2017-11-26T21:32:01.661Z,66.80
2017-11-26T21:34:38.499Z,66.90
2017-11-26T21:37:20.603Z,66.30
2017-11-26T21:40:15.352Z,66.30
2017-11-26T21:42:54.233Z,65.50
2017-11-26T21:45:39.199Z,65.40
2017-11-26T21:48:16.500Z,64.80
2017-11-26T21:50:57.297Z,64.70
2017-11-26T21:53:33.794Z,65.40
2017-11-26T21:56:11.424Z,65.50
2017-11-26T21:59:06.245Z,65.50
2017-11-26T22:01:42.380Z,65.80
2017-11-26T22:04:18.472Z,66.20
2017-11-26T22:07:03.078Z,66.00
2017-11-26T22:09:45.118Z,65.90
2017-11-26T22:12:17.939Z,66.00
2017-11-26T22:14:54.749Z,65.90
2017-11-26T22:17:27.737Z,66.40
2017-11-26T22:20:00.481Z,66.60
2017-11-26T22:22:37.619Z,66.60
2017-11-26T22:25:13.787Z,65.60
2017-11-26T22:27:49.029Z,66.60
2017-11-26T22:30:26.458Z,66.50
2017-11-26T22:33:03.583Z,66.50
2017-11-26T22:35:39.008Z,66.70
2017-11-26T22:38:14.770Z,66.90
2017-11-26T22:40:53.950Z,66.90
2017-11-26T22:43:29.256Z,67.00
2017-11-26T22:46:02.650Z,67.10
2017-11-26T22:48:36.955Z,67.20
2017-11-26T22:51:14.320Z,67.10
2017-11-26T22:53:48.103Z,67.10
2017-11-26T22:56:25.975Z,67.10
2017-11-26T22:59:26.907Z,67.10
2017-11-26T23:02:03.505Z,67.10
2017-11-26T23:07:39.385Z,67.40
2017-11-26T23:10:11.770Z,67.40
2017-11-26T23:12:50.879Z,66.50
2017-11-26T23:15:25.433Z,66.90
2017-11-26T23:17:57.288Z,67.10
2017-11-26T23:20:33.879Z,67.20
2017-11-26T23:23:06.871Z,67.50
2017-11-26T23:25:40.669Z,67.50
2017-11-26T23:28:23.344Z,67.60
2017-11-26T23:31:02.718Z,67.60
2017-11-26T23:33:43.201Z,67.50
2017-11-26T23:36:15.265Z,67.40
2017-11-26T23:38:51.873Z,67.40
2017-11-26T23:41:31.368Z,67.50
2017-11-26T23:44:08.097Z,67.30
2017-11-26T23:46:42.924Z,67.30
2017-11-26T23:49:18.665Z,67.50
2017-11-26T23:51:56.681Z,67.50
2017-11-26T23:54:32.151Z,67.70
2017-11-26T23:57:16.943Z,67.40
2017-11-26T23:59:53.929Z,67.70
